createdAt,value
2017-10-30T00:01:45.500Z,0.88
2017-10-30T00:04:13.124Z,0.80
2017-10-30T00:06:40.629Z,0.77
2017-10-30T00:09:08.152Z,0.74
2017-10-30T00:11:35.699Z,0.73
2017-10-30T00:14:03.257Z,0.76
2017-10-30T00:16:30.770Z,0.84
2017-10-30T00:18:58.311Z,0.81
2017-10-30T00:21:25.798Z,0.71
2017-10-30T00:23:53.294Z,0.81
2017-10-30T00:26:20.847Z,0.66
2017-10-30T00:28:48.346Z,0.56
2017-10-30T00:31:15.847Z,0.65
2017-10-30T00:33:43.334Z,0.61
2017-10-30T00:36:10.832Z,0.52
2017-10-30T00:38:38.333Z,0.43
2017-10-30T00:41:05.832Z,0.52
2017-10-30T00:43:33.450Z,0.46
2017-10-30T00:46:01.001Z,0.42
2017-10-30T00:48:28.498Z,0.36
2017-10-30T00:50:55.977Z,0.25
2017-10-30T00:53:23.486Z,0.26
2017-10-30T00:55:50.997Z,0.20
2017-10-30T00:58:18.485Z,0.30
2017-10-30T01:00:45.984Z,0.14
2017-10-30T01:03:13.481Z,0.00
2017-10-30T01:05:41.007Z,0.13
2017-10-30T01:08:08.493Z,0.12
2017-10-30T01:10:36.000Z,0.14
2017-10-30T01:13:03.510Z,0.06
2017-10-30T01:15:31.012Z,0.07
2017-10-30T01:17:58.521Z,-0.02
2017-10-30T01:20:26.045Z,0.03
2017-10-30T01:22:53.554Z,0.16
2017-10-30T01:25:21.066Z,0.06
2017-10-30T01:27:48.574Z,-0.17
2017-10-30T01:30:16.149Z,-0.19
2017-10-30T01:32:43.652Z,-0.30
2017-10-30T01:35:11.138Z,-0.33
2017-10-30T01:37:38.661Z,-0.34
2017-10-30T01:40:06.181Z,-0.28
2017-10-30T01:42:33.694Z,-0.24
2017-10-30T01:45:01.202Z,-0.19
2017-10-30T01:47:28.704Z,-0.23
2017-10-30T01:49:56.199Z,-0.28
2017-10-30T01:52:23.698Z,-0.21
2017-10-30T01:54:51.205Z,-0.03
2017-10-30T01:57:18.710Z,-0.16
2017-10-30T01:59:46.211Z,-0.04
2017-10-30T02:02:13.718Z,-0.07
2017-10-30T02:04:41.210Z,-0.15
2017-10-30T02:07:08.793Z,-0.25
2017-10-30T02:09:36.312Z,-0.25
2017-10-30T02:12:03.801Z,-0.34
2017-10-30T02:14:31.306Z,-0.34
2017-10-30T02:16:58.834Z,-0.36
2017-10-30T02:19:26.337Z,-0.15
2017-10-30T02:21:53.843Z,-0.35
2017-10-30T02:24:21.346Z,-0.44
2017-10-30T02:26:48.872Z,-0.50
2017-10-30T02:29:16.405Z,-0.54
2017-10-30T02:31:43.928Z,-0.54
2017-10-30T02:34:11.433Z,-0.52
2017-10-30T02:36:38.951Z,-0.38
2017-10-30T02:39:06.465Z,-0.50
2017-10-30T02:41:33.997Z,-0.56
2017-10-30T02:44:01.502Z,-0.52
2017-10-30T02:46:29.001Z,-0.45
2017-10-30T02:48:56.513Z,-0.47
2017-10-30T02:51:24.023Z,-0.58
2017-10-30T02:53:51.523Z,-0.60
2017-10-30T02:56:19.016Z,-0.56
2017-10-30T02:58:46.519Z,-0.66
2017-10-30T03:01:14.053Z,-0.74
2017-10-30T03:03:41.558Z,-0.70
2017-10-30T03:06:09.082Z,-0.47
2017-10-30T03:08:36.581Z,-0.53
2017-10-30T03:11:04.086Z,-0.48
2017-10-30T03:13:31.587Z,-0.42
2017-10-30T03:15:59.095Z,-0.67
2017-10-30T03:18:26.610Z,-0.62
2017-10-30T03:20:54.112Z,-0.53
2017-10-30T03:23:21.610Z,-0.52
2017-10-30T03:25:49.138Z,-0.51
2017-10-30T03:28:16.629Z,-0.42
2017-10-30T03:30:44.123Z,-0.47
2017-10-30T03:33:11.619Z,-0.27
2017-10-30T03:35:39.133Z,-0.17
2017-10-30T03:38:06.636Z,-0.13
2017-10-30T03:40:34.139Z,-0.12
2017-10-30T03:43:01.625Z,-0.10
2017-10-30T03:45:29.113Z,-0.08
2017-10-30T03:47:56.597Z,-0.19
2017-10-30T03:50:24.093Z,-0.27
2017-10-30T03:52:51.586Z,-0.09
2017-10-30T03:55:19.077Z,-0.04
2017-10-30T03:57:46.568Z,0.09
2017-10-30T04:00:14.065Z,0.15
2017-10-30T04:02:41.555Z,0.20
2017-10-30T04:05:09.044Z,0.34
2017-10-30T04:07:36.552Z,0.54
2017-10-30T04:10:04.039Z,0.65
2017-10-30T04:12:32.008Z,0.69
2017-10-30T04:14:59.496Z,0.77
2017-10-30T04:17:26.994Z,0.73
2017-10-30T04:19:54.529Z,0.56
2017-10-30T04:22:22.054Z,0.51
2017-10-30T04:24:49.561Z,0.64
2017-10-30T04:27:17.058Z,0.60
2017-10-30T04:29:44.550Z,0.55
2017-10-30T04:32:12.037Z,0.61
2017-10-30T04:34:39.529Z,0.75
2017-10-30T04:37:07.021Z,0.87
2017-10-30T04:39:34.510Z,0.72
2017-10-30T04:42:02.031Z,0.79
2017-10-30T04:44:29.583Z,0.69
2017-10-30T04:46:57.078Z,0.73
2017-10-30T04:49:24.584Z,0.80
2017-10-30T04:51:52.074Z,0.91
2017-10-30T04:54:19.565Z,0.85
2017-10-30T04:56:47.073Z,0.48
2017-10-30T04:59:14.569Z,0.45
2017-10-30T05:01:42.070Z,0.36
2017-10-30T05:04:09.561Z,0.29
2017-10-30T05:06:37.039Z,0.22
2017-10-30T05:09:04.523Z,0.12
2017-10-30T05:11:32.031Z,0.05
2017-10-30T05:13:59.535Z,-0.01
2017-10-30T05:16:27.020Z,0.12
2017-10-30T05:18:54.521Z,-0.06
2017-10-30T05:21:22.018Z,-0.10
2017-10-30T05:23:49.525Z,-0.17
2017-10-30T05:26:17.024Z,-0.11
2017-10-30T05:28:44.545Z,0.04
2017-10-30T05:31:12.070Z,-0.12
2017-10-30T05:33:39.561Z,0.02
2017-10-30T05:36:07.116Z,-0.17
2017-10-30T05:38:34.634Z,-0.36
2017-10-30T05:41:02.124Z,-0.33
2017-10-30T05:43:29.621Z,-0.33
2017-10-30T05:45:57.157Z,-0.30
2017-10-30T05:48:24.645Z,-0.20
2017-10-30T05:50:52.162Z,-0.28
2017-10-30T05:53:19.658Z,-0.27
2017-10-30T05:55:47.462Z,-0.27
2017-10-30T05:58:14.966Z,-0.17
2017-10-30T06:00:42.480Z,-0.19
2017-10-30T06:03:09.973Z,-0.39
2017-10-30T06:05:37.494Z,-0.50
2017-10-30T06:08:05.005Z,-0.49
2017-10-30T06:10:32.514Z,-0.43
2017-10-30T06:13:00.010Z,-0.49
2017-10-30T06:15:27.535Z,-0.48
2017-10-30T06:17:55.069Z,-0.54
2017-10-30T06:20:22.621Z,-0.59
2017-10-30T06:22:50.141Z,-0.57
2017-10-30T06:25:17.672Z,-0.52
2017-10-30T06:27:45.182Z,-0.51
2017-10-30T06:30:12.706Z,-0.30
2017-10-30T06:32:40.218Z,-0.09
2017-10-30T06:35:07.743Z,-0.17
2017-10-30T06:37:35.242Z,-0.17
2017-10-30T06:40:02.747Z,-0.25
2017-10-30T06:42:30.241Z,-0.21
2017-10-30T06:44:57.765Z,0.13
2017-10-30T06:47:25.292Z,0.20
2017-10-30T06:49:52.818Z,0.11
2017-10-30T06:52:20.315Z,-0.13
2017-10-30T06:54:47.822Z,0.04
2017-10-30T06:57:15.308Z,0.07
2017-10-30T06:59:42.801Z,0.20
2017-10-30T07:02:22.154Z,0.41
2017-10-30T07:04:49.641Z,0.31
2017-10-30T07:07:17.127Z,0.43
2017-10-30T07:09:44.625Z,0.58
2017-10-30T07:12:12.122Z,0.52
2017-10-30T07:14:39.658Z,0.66
2017-10-30T07:17:07.159Z,0.71
2017-10-30T07:19:34.680Z,1.00
2017-10-30T07:22:02.190Z,1.23
2017-10-30T07:24:29.709Z,1.30
2017-10-30T07:26:57.197Z,1.22
2017-10-30T07:29:24.716Z,1.40
2017-10-30T07:31:52.207Z,1.40
2017-10-30T07:34:19.688Z,1.65
2017-10-30T07:36:47.174Z,1.58
2017-10-30T07:39:14.674Z,2.07
2017-10-30T07:41:42.178Z,1.73
2017-10-30T07:44:09.714Z,1.62
2017-10-30T07:46:37.260Z,1.46
2017-10-30T07:49:04.750Z,1.74
2017-10-30T07:51:32.254Z,1.75
2017-10-30T07:53:59.746Z,1.98
2017-10-30T07:56:27.247Z,2.31
2017-10-30T07:58:54.765Z,2.49
2017-10-30T08:01:22.295Z,2.44
2017-10-30T08:03:49.802Z,2.25
2017-10-30T08:06:17.371Z,2.82
2017-10-30T08:08:44.913Z,2.75
2017-10-30T08:11:12.425Z,3.40
2017-10-30T08:13:39.925Z,3.51
2017-10-30T08:16:07.426Z,5.51
2017-10-30T08:18:34.937Z,5.97
2017-10-30T08:21:02.414Z,5.70
2017-10-30T08:23:29.922Z,5.67
2017-10-30T08:25:57.423Z,7.46
2017-10-30T08:28:24.936Z,7.74
2017-10-30T08:30:52.487Z,8.01
2017-10-30T08:33:20.032Z,9.11
2017-10-30T08:35:47.521Z,11.15
2017-10-30T08:38:16.475Z,11.88
2017-10-30T08:41:01.205Z,13.71
2017-10-30T08:43:28.742Z,13.57
2017-10-30T08:45:56.256Z,11.02
2017-10-30T08:48:23.769Z,11.12
2017-10-30T08:50:51.267Z,12.38
2017-10-30T08:53:18.777Z,14.15
2017-10-30T08:55:46.298Z,14.34
2017-10-30T08:58:13.809Z,14.40
2017-10-30T09:00:41.323Z,16.55
2017-10-30T09:03:08.823Z,16.35
2017-10-30T09:05:36.357Z,13.34
2017-10-30T09:08:03.871Z,12.32
2017-10-30T09:10:31.365Z,9.81
2017-10-30T09:12:58.857Z,9.32
2017-10-30T09:15:26.374Z,9.46
2017-10-30T09:17:54.030Z,7.55
2017-10-30T09:20:21.797Z,7.75
2017-10-30T09:22:49.302Z,8.79
2017-10-30T09:25:16.829Z,9.26
2017-10-30T09:27:44.331Z,7.95
2017-10-30T09:30:11.878Z,10.11
2017-10-30T09:32:39.403Z,9.14
2017-10-30T09:35:06.892Z,8.55
2017-10-30T09:37:45.109Z,8.66
2017-10-30T09:42:54.615Z,8.90
2017-10-30T09:49:53.451Z,9.87
2017-10-30T09:52:21.109Z,8.45
2017-10-30T09:54:48.618Z,8.79
2017-10-30T09:57:16.153Z,8.71
2017-10-30T09:59:43.707Z,8.09
2017-10-30T10:02:11.205Z,8.54
2017-10-30T10:04:38.737Z,8.83
2017-10-30T10:07:06.266Z,8.94
2017-10-30T10:09:33.778Z,10.07
2017-10-30T10:12:01.290Z,10.85
2017-10-30T10:14:28.837Z,12.65
2017-10-30T10:16:56.355Z,11.99
2017-10-30T10:19:23.968Z,11.68
2017-10-30T10:21:51.489Z,10.94
2017-10-30T10:24:19.018Z,8.70
2017-10-30T10:26:46.519Z,9.60
2017-10-30T10:29:14.007Z,9.80
2017-10-30T10:31:41.530Z,10.09
2017-10-30T10:34:09.013Z,9.66
2017-10-30T10:36:36.523Z,9.34
2017-10-30T10:39:04.022Z,9.66
2017-10-30T10:41:31.518Z,9.61
2017-10-30T10:43:59.032Z,9.33
2017-10-30T10:46:26.591Z,9.88
2017-10-30T10:48:54.097Z,9.74
2017-10-30T10:51:21.593Z,9.52
2017-10-30T10:53:49.100Z,10.14
2017-10-30T10:56:16.617Z,10.43
2017-10-30T10:58:44.193Z,10.66
2017-10-30T11:01:11.731Z,10.78
2017-10-30T11:03:39.228Z,10.36
2017-10-30T11:06:06.789Z,10.72
2017-10-30T11:08:34.289Z,10.82
2017-10-30T11:11:01.797Z,10.62
2017-10-30T11:13:29.313Z,10.02
2017-10-30T11:15:56.801Z,9.99
2017-10-30T11:18:24.306Z,10.49
2017-10-30T11:20:51.805Z,10.89
2017-10-30T11:23:19.323Z,11.11
2017-10-30T11:25:46.824Z,11.83
2017-10-30T11:28:14.365Z,12.44
2017-10-30T11:30:41.874Z,12.62
2017-10-30T11:33:09.370Z,15.47
2017-10-30T11:35:36.866Z,17.48
2017-10-30T11:38:04.357Z,15.66
2017-10-30T11:40:31.890Z,15.96
2017-10-30T11:42:59.382Z,17.24
2017-10-30T11:45:26.946Z,18.77
2017-10-30T11:47:54.454Z,16.48
2017-10-30T11:50:22.013Z,14.63
2017-10-30T11:52:49.509Z,14.96
2017-10-30T11:55:16.995Z,15.03
2017-10-30T11:57:44.634Z,14.86
2017-10-30T12:00:12.149Z,13.59
2017-10-30T12:02:39.723Z,13.29
2017-10-30T12:05:07.273Z,13.64
2017-10-30T12:07:34.782Z,14.14
2017-10-30T12:10:02.359Z,13.53
2017-10-30T12:12:29.932Z,13.15
2017-10-30T12:14:57.441Z,13.10
2017-10-30T12:17:25.014Z,12.72
2017-10-30T12:19:52.517Z,12.43
2017-10-30T12:22:20.038Z,12.61
2017-10-30T12:24:47.579Z,12.29
2017-10-30T12:27:15.121Z,12.09
2017-10-30T12:29:42.639Z,11.45
2017-10-30T12:32:10.158Z,11.58
2017-10-30T12:34:37.650Z,11.63
2017-10-30T12:37:05.153Z,11.05
2017-10-30T12:39:32.671Z,10.63
2017-10-30T12:42:00.179Z,10.74
2017-10-30T12:44:28.102Z,10.60
2017-10-30T12:46:55.599Z,10.60
2017-10-30T12:49:23.135Z,10.26
2017-10-30T12:51:50.638Z,10.43
2017-10-30T12:54:18.157Z,10.42
2017-10-30T12:56:45.662Z,10.41
2017-10-30T12:59:13.158Z,10.30
2017-10-30T13:01:40.678Z,10.27
2017-10-30T13:04:08.168Z,10.48
2017-10-30T13:06:35.658Z,10.71
2017-10-30T13:09:03.169Z,10.76
2017-10-30T13:11:30.682Z,10.60
2017-10-30T13:13:58.297Z,10.61
2017-10-30T13:16:25.916Z,10.44
2017-10-30T13:18:53.414Z,10.15
2017-10-30T13:21:20.938Z,10.41
2017-10-30T13:23:48.491Z,10.42
2017-10-30T13:26:15.987Z,10.68
2017-10-30T13:28:43.507Z,10.59
2017-10-30T13:31:11.044Z,10.84
2017-10-30T13:33:38.619Z,10.47
2017-10-30T13:36:06.125Z,10.57
2017-10-30T13:38:33.640Z,10.37
2017-10-30T13:41:01.158Z,10.06
2017-10-30T13:43:28.680Z,10.15
2017-10-30T13:46:03.344Z,9.99
2017-10-30T13:48:30.862Z,10.05
2017-10-30T13:51:19.706Z,10.26
2017-10-30T13:53:47.227Z,10.47
2017-10-30T13:56:15.148Z,10.56
2017-10-30T13:58:42.768Z,10.32
2017-10-30T14:01:10.284Z,10.43
2017-10-30T14:03:37.834Z,10.33
2017-10-30T14:06:05.334Z,10.14
2017-10-30T14:08:32.853Z,10.08
2017-10-30T14:11:00.403Z,10.41
2017-10-30T14:13:27.893Z,10.20
2017-10-30T14:15:55.418Z,10.03
2017-10-30T14:18:22.916Z,10.08
2017-10-30T14:20:50.438Z,10.11
2017-10-30T14:23:17.947Z,10.24
2017-10-30T14:25:45.507Z,10.03
2017-10-30T14:28:13.000Z,10.02
2017-10-30T14:30:40.501Z,9.73
2017-10-30T14:33:07.996Z,9.86
2017-10-30T14:35:35.548Z,9.75
2017-10-30T14:38:03.053Z,9.57
2017-10-30T14:40:30.606Z,9.43
2017-10-30T14:42:58.130Z,9.33
2017-10-30T14:45:25.654Z,9.15
2017-10-30T14:47:53.193Z,9.25
2017-10-30T14:50:20.757Z,9.20
2017-10-30T14:52:48.266Z,9.16
2017-10-30T14:55:15.767Z,9.17
2017-10-30T14:57:43.314Z,9.08
2017-10-30T15:00:10.814Z,9.18
2017-10-30T15:02:51.534Z,9.26
2017-10-30T15:05:19.092Z,9.33
2017-10-30T15:07:53.195Z,9.14
2017-10-30T15:10:20.719Z,8.97
2017-10-30T15:12:48.252Z,8.95
2017-10-30T15:15:15.767Z,8.77
2017-10-30T15:17:43.251Z,8.75
2017-10-30T15:20:10.750Z,8.71
2017-10-30T15:22:38.266Z,8.72
2017-10-30T15:25:05.785Z,8.66
2017-10-30T15:27:33.333Z,8.33
2017-10-30T15:30:00.847Z,8.15
2017-10-30T15:32:28.362Z,7.97
2017-10-30T15:34:55.881Z,7.96
2017-10-30T15:37:23.381Z,7.64
2017-10-30T15:39:51.125Z,7.35
2017-10-30T15:42:18.705Z,7.20
2017-10-30T15:44:46.292Z,6.85
2017-10-30T15:47:13.864Z,6.63
2017-10-30T15:49:41.371Z,6.42
2017-10-30T15:52:08.893Z,6.23
2017-10-30T15:54:36.400Z,6.07
2017-10-30T15:57:03.922Z,5.95
2017-10-30T15:59:31.468Z,5.78
2017-10-30T16:01:58.994Z,5.57
2017-10-30T16:04:26.490Z,5.43
2017-10-30T16:06:54.004Z,5.25
2017-10-30T16:09:21.556Z,5.18
2017-10-30T16:11:49.078Z,5.05
2017-10-30T16:14:16.590Z,4.96
2017-10-30T16:16:44.113Z,4.94
2017-10-30T16:19:11.654Z,4.88
2017-10-30T16:21:39.179Z,4.89
2017-10-30T16:24:06.707Z,4.78
2017-10-30T16:26:34.225Z,4.54
2017-10-30T16:29:01.724Z,4.33
2017-10-30T16:31:29.222Z,4.24
2017-10-30T16:33:56.727Z,4.27
2017-10-30T16:36:24.239Z,4.16
2017-10-30T16:38:51.766Z,4.21
2017-10-30T16:41:19.297Z,4.18
2017-10-30T16:43:46.818Z,4.02
2017-10-30T16:46:14.357Z,3.88
2017-10-30T16:48:41.864Z,3.98
2017-10-30T16:51:09.361Z,3.81
2017-10-30T16:53:36.861Z,3.73
2017-10-30T16:56:04.365Z,3.82
2017-10-30T16:58:31.885Z,3.92
2017-10-30T17:00:59.395Z,3.72
2017-10-30T17:03:26.992Z,3.55
2017-10-30T17:05:54.513Z,3.27
2017-10-30T17:08:22.017Z,3.41
2017-10-30T17:10:49.557Z,3.44
2017-10-30T17:13:17.078Z,3.29
2017-10-30T17:15:44.585Z,3.23
2017-10-30T17:18:12.122Z,2.96
2017-10-30T17:20:39.653Z,2.77
2017-10-30T17:23:07.173Z,2.63
2017-10-30T17:34:40.652Z,2.32
2017-10-30T17:37:08.157Z,2.22
2017-10-30T17:39:35.654Z,2.20
2017-10-30T17:42:03.171Z,2.26
2017-10-30T17:44:30.665Z,2.24
2017-10-30T17:46:58.185Z,2.15
2017-10-30T17:49:25.698Z,2.00
2017-10-30T17:51:53.205Z,1.92
2017-10-30T17:54:20.750Z,1.88
2017-10-30T17:56:48.250Z,1.84
2017-10-30T17:59:16.705Z,1.96
2017-10-30T18:01:44.222Z,1.95
2017-10-30T18:04:11.754Z,1.87
2017-10-30T18:06:39.250Z,1.73
2017-10-30T18:09:06.767Z,1.70
2017-10-30T18:11:34.274Z,1.75
2017-10-30T18:14:01.829Z,1.59
2017-10-30T18:16:29.369Z,1.59
2017-10-30T18:18:56.875Z,1.49
2017-10-30T18:21:24.359Z,1.48
2017-10-30T18:23:51.858Z,1.53
2017-10-30T18:26:19.362Z,1.46
2017-10-30T18:28:46.868Z,1.46
2017-10-30T18:31:14.381Z,1.34
2017-10-30T18:33:41.886Z,1.22
2017-10-30T18:36:09.405Z,1.25
2017-10-30T18:38:36.908Z,1.13
2017-10-30T18:41:04.434Z,1.14
2017-10-30T18:43:31.942Z,1.07
2017-10-30T18:45:59.479Z,0.99
2017-10-30T18:48:27.019Z,0.99
2017-10-30T18:50:54.587Z,1.11
2017-10-30T18:53:22.080Z,1.16
2017-10-30T18:55:49.590Z,1.12
2017-10-30T18:58:17.079Z,0.92
2017-10-30T19:00:44.590Z,0.87
2017-10-30T19:03:12.102Z,0.85
2017-10-30T19:05:39.603Z,0.77
2017-10-30T19:08:07.125Z,0.70
2017-10-30T19:10:34.651Z,0.67
2017-10-30T19:13:02.150Z,0.57
2017-10-30T19:15:29.653Z,0.59
2017-10-30T19:17:57.270Z,0.72
2017-10-30T19:20:24.798Z,0.81
2017-10-30T19:22:52.312Z,0.72
2017-10-30T19:25:19.818Z,0.76
2017-10-30T19:27:47.365Z,0.62
2017-10-30T19:30:14.866Z,0.62
2017-10-30T19:32:42.391Z,0.73
2017-10-30T19:35:09.886Z,0.67
2017-10-30T19:37:37.404Z,0.52
2017-10-30T19:40:04.910Z,0.46
2017-10-30T19:42:32.436Z,0.55
2017-10-30T19:44:59.927Z,0.48
2017-10-30T19:47:27.433Z,0.38
2017-10-30T19:49:54.951Z,0.49
2017-10-30T19:52:22.493Z,0.43
2017-10-30T19:54:50.011Z,0.39
2017-10-30T19:57:17.664Z,0.57
2017-10-30T19:59:45.250Z,0.50
2017-10-30T20:02:12.783Z,0.48
2017-10-30T20:04:40.351Z,0.69
2017-10-30T20:07:13.653Z,0.87
2017-10-30T20:09:47.119Z,0.69
2017-10-30T20:12:20.664Z,0.57
2017-10-30T20:14:48.618Z,0.24
2017-10-30T20:17:16.587Z,0.29
2017-10-30T20:19:44.452Z,0.49
2017-10-30T20:22:12.321Z,0.52
2017-10-30T20:24:40.187Z,0.54
2017-10-30T20:27:08.157Z,0.57
2017-10-30T20:29:36.120Z,0.72
2017-10-30T20:32:04.089Z,0.55
2017-10-30T20:34:32.164Z,0.83
2017-10-30T20:37:00.131Z,1.01
2017-10-30T20:39:28.111Z,0.76
2017-10-30T20:41:56.065Z,0.56
2017-10-30T20:44:24.034Z,0.62
2017-10-30T20:46:52.003Z,0.67
2017-10-30T20:49:19.984Z,0.62
2017-10-30T20:51:47.953Z,0.53
2017-10-30T20:54:15.806Z,0.34
2017-10-30T20:56:43.772Z,0.38
2017-10-30T20:59:11.640Z,0.35
2017-10-30T21:01:39.616Z,0.30
2017-10-30T21:04:07.475Z,0.27
2017-10-30T21:06:35.349Z,0.36
2017-10-30T21:09:03.290Z,0.22
2017-10-30T21:11:31.176Z,0.29
2017-10-30T21:13:59.043Z,0.25
2017-10-30T21:16:27.129Z,0.33
2017-10-30T21:18:55.299Z,0.19
2017-10-30T21:21:23.119Z,0.00
2017-10-30T21:23:51.030Z,0.13
2017-10-30T21:26:19.120Z,0.11
2017-10-30T21:28:47.056Z,0.03
2017-10-30T21:31:14.921Z,0.02
2017-10-30T21:33:42.563Z,0.02
2017-10-30T21:36:10.107Z,-0.03
2017-10-30T21:38:37.618Z,-0.09
2017-10-30T21:41:05.137Z,-0.15
2017-10-30T21:43:32.651Z,-0.16
2017-10-30T21:46:00.164Z,-0.09
2017-10-30T21:48:27.685Z,0.01
2017-10-30T21:50:55.190Z,-0.10
2017-10-30T21:53:22.732Z,-0.23
2017-10-30T21:55:50.221Z,-0.14
2017-10-30T21:58:17.729Z,-0.26
2017-10-30T22:00:45.236Z,-0.37
2017-10-30T22:03:12.755Z,-0.40
2017-10-30T22:05:40.283Z,-0.40
2017-10-30T22:08:07.810Z,-0.49
2017-10-30T22:10:35.333Z,-0.53
2017-10-30T22:13:02.835Z,-0.57
2017-10-30T22:15:30.356Z,-0.53
2017-10-30T22:18:01.653Z,-0.61
2017-10-30T22:20:29.260Z,-0.48
2017-10-30T22:22:57.045Z,-0.54
2017-10-30T22:25:24.570Z,-0.62
2017-10-30T22:27:52.217Z,-0.55
2017-10-30T22:30:19.826Z,-0.45
2017-10-30T22:32:47.367Z,-0.55
2017-10-30T22:35:14.879Z,-0.63
2017-10-30T22:37:42.373Z,-0.68
2017-10-30T22:40:09.926Z,-0.67
2017-10-30T22:42:37.454Z,-0.79
2017-10-30T22:45:04.982Z,-0.81
2017-10-30T22:47:32.505Z,-0.78
2017-10-30T22:50:00.015Z,-0.69
2017-10-30T22:52:27.512Z,-0.78
2017-10-30T22:54:55.093Z,-0.85
2017-10-30T22:57:22.591Z,-0.80
2017-10-30T22:59:50.102Z,-0.82
2017-10-30T23:02:17.598Z,-0.63
2017-10-30T23:04:45.113Z,-0.79
2017-10-30T23:07:12.624Z,-0.88
2017-10-30T23:09:40.131Z,-0.86
2017-10-30T23:12:07.627Z,-0.90
2017-10-30T23:14:35.127Z,-0.54
2017-10-30T23:17:02.633Z,-0.50
2017-10-30T23:19:30.153Z,-0.68
2017-10-30T23:21:57.661Z,-0.61
2017-10-30T23:24:25.174Z,-0.53
2017-10-30T23:26:52.699Z,-0.42
2017-10-30T23:29:20.203Z,-0.43
2017-10-30T23:31:47.687Z,-0.68
2017-10-30T23:34:15.193Z,-0.98
2017-10-30T23:36:42.779Z,-0.92
2017-10-30T23:39:10.272Z,-0.81
2017-10-30T23:41:37.769Z,-0.78
2017-10-30T23:44:05.277Z,-1.15
2017-10-30T23:46:32.774Z,-1.24
2017-10-30T23:49:00.298Z,-1.21
2017-10-30T23:51:27.855Z,-1.18
2017-10-30T23:53:55.384Z,-1.10
2017-10-30T23:56:22.897Z,-1.04
2017-10-30T23:58:50.406Z,-1.10
